Radar

Vær
Nettlenker
Antall som skal vises: 
1 Internet Pilot Planning Centre
2 Kjevik time for time
3 Værsiden
4 Weather Underground Norway
5 National Weather Service
6 Skogbrannfarevarsel
 
METAR
2017/08/23 00:20 ENCN 230020Z AUTO 06005KT 9999 FEW110/// SCT140/// 09/09 Q1020
TAF
2017/08/22 18:37 TAF ENCN 221700Z 2218/2221 21008KT 9999 FEW040
LN-KFK
Operativ VFR-natt
VFR dag
05:22 - 21:37
Brannvakt
Inaktiv
Banner
Banner
Banner
Banner
Banner